sensor_id;sensor_type;location;lat;lon;timestamp;pressure;altitude;pressure_sealevel;temperature;humidity
24996;BME280;13016;52.162;21.034;2022-12-20T00:02:10;101226.66;;;3.14;60.15
24996;BME280;13016;52.162;21.034;2022-12-20T00:10:50;101220.78;;;3.60;59.39
24996;BME280;13016;52.162;21.034;2022-12-20T00:13:15;101212.73;;;3.51;59.47
24996;BME280;13016;52.162;21.034;2022-12-20T00:15:40;101211.38;;;3.49;59.81
24996;BME280;13016;52.162;21.034;2022-12-20T00:18:06;101205.95;;;3.60;59.64
24996;BME280;13016;52.162;21.034;2022-12-20T00:20:31;101195.48;;;3.31;60.28
24996;BME280;13016;52.162;21.034;2022-12-20T00:22:56;101190.14;;;3.28;60.61
24996;BME280;13016;52.162;21.034;2022-12-20T00:25:22;101184.22;;;3.37;60.65
24996;BME280;13016;52.162;21.034;2022-12-20T00:27:48;101182.01;;;3.25;60.91
24996;BME280;13016;52.162;21.034;2022-12-20T00:30:14;101183.44;;;3.41;60.67
24996;BME280;13016;52.162;21.034;2022-12-20T00:32:40;101177.50;;;3.69;60.24
24996;BME280;13016;52.162;21.034;2022-12-20T00:35:06;101181.69;;;3.69;59.68
24996;BME280;13016;52.162;21.034;2022-12-20T00:37:31;101177.94;;;3.82;59.52
24996;BME280;13016;52.162;21.034;2022-12-20T00:39:56;101173.02;;;3.74;59.73
24996;BME280;13016;52.162;21.034;2022-12-20T00:42:22;101172.23;;;3.63;60.09
24996;BME280;13016;52.162;21.034;2022-12-20T00:44:47;101170.63;;;3.81;60.06
24996;BME280;13016;52.162;21.034;2022-12-20T00:47:13;101173.70;;;4.08;59.84
24996;BME280;13016;52.162;21.034;2022-12-20T00:49:38;101173.11;;;4.27;59.25
24996;BME280;13016;52.162;21.034;2022-12-20T00:52:03;101171.65;;;4.52;58.92
24996;BME280;13016;52.162;21.034;2022-12-20T00:54:29;101172.42;;;4.42;59.02
24996;BME280;13016;52.162;21.034;2022-12-20T00:56:54;101166.27;;;4.36;59.63
24996;BME280;13016;52.162;21.034;2022-12-20T00:59:19;101168.14;;;4.30;59.67
24996;BME280;13016;52.162;21.034;2022-12-20T01:01:46;101162.08;;;4.36;59.98
24996;BME280;13016;52.162;21.034;2022-12-20T01:04:11;101162.40;;;4.30;60.18
24996;BME280;13016;52.162;21.034;2022-12-20T01:06:36;101161.81;;;4.40;60.49
24996;BME280;13016;52.162;21.034;2022-12-20T01:09:02;101156.80;;;4.37;60.51
24996;BME280;13016;52.162;21.034;2022-12-20T01:11:30;101154.30;;;4.32;60.86
24996;BME280;13016;52.162;21.034;2022-12-20T01:13:57;101148.23;;;4.24;61.79
24996;BME280;13016;52.162;21.034;2022-12-20T01:16:25;101146.84;;;4.38;61.78
24996;BME280;13016;52.162;21.034;2022-12-20T01:18:51;101145.95;;;4.23;62.40
24996;BME280;13016;52.162;21.034;2022-12-20T01:21:19;101144.72;;;4.23;62.99
24996;BME280;13016;52.162;21.034;2022-12-20T01:23:45;101143.70;;;4.15;63.82
24996;BME280;13016;52.162;21.034;2022-12-20T01:26:14;101138.18;;;4.27;63.88
24996;BME280;13016;52.162;21.034;2022-12-20T01:28:41;101136.95;;;4.42;64.12
24996;BME280;13016;52.162;21.034;2022-12-20T01:31:12;101137.98;;;4.50;64.22
24996;BME280;13016;52.162;21.034;2022-12-20T01:33:38;101131.02;;;4.70;63.90
24996;BME280;13016;52.162;21.034;2022-12-20T01:36:06;101126.98;;;4.64;64.13
24996;BME280;13016;52.162;21.034;2022-12-20T01:38:32;101122.52;;;4.60;64.50
24996;BME280;13016;52.162;21.034;2022-12-20T01:40:58;101115.29;;;4.63;64.72
24996;BME280;13016;52.162;21.034;2022-12-20T01:43:25;101108.21;;;4.67;64.99
24996;BME280;13016;52.162;21.034;2022-12-20T01:46:08;101106.86;;;4.71;64.82
24996;BME280;13016;52.162;21.034;2022-12-20T01:48:34;101101.59;;;4.59;65.41
24996;BME280;13016;52.162;21.034;2022-12-20T01:51:00;101097.23;;;4.52;65.76
24996;BME280;13016;52.162;21.034;2022-12-20T02:02:49;101085.46;;;4.82;65.62
24996;BME280;13016;52.162;21.034;2022-12-20T02:05:17;101083.61;;;4.92;65.84
24996;BME280;13016;52.162;21.034;2022-12-20T02:07:45;101072.11;;;4.84;65.84
24996;BME280;13016;52.162;21.034;2022-12-20T02:10:14;101065.19;;;4.82;66.24
24996;BME280;13016;52.162;21.034;2022-12-20T02:12:45;101062.79;;;4.73;66.49
24996;BME280;13016;52.162;21.034;2022-12-20T02:17:56;101048.78;;;4.74;67.12
24996;BME280;13016;52.162;21.034;2022-12-20T02:20:50;101051.68;;;4.96;66.45
24996;BME280;13016;52.162;21.034;2022-12-20T02:31:04;101040.55;;;5.13;66.21
24996;BME280;13016;52.162;21.034;2022-12-20T02:33:32;101036.23;;;4.92;66.67
24996;BME280;13016;52.162;21.034;2022-12-20T02:35:57;101033.27;;;5.04;66.90
24996;BME280;13016;52.162;21.034;2022-12-20T02:38:30;101032.23;;;5.16;66.56
24996;BME280;13016;52.162;21.034;2022-12-20T02:41:20;101035.02;;;5.23;66.44
24996;BME280;13016;52.162;21.034;2022-12-20T02:43:51;101036.88;;;5.49;66.07
24996;BME280;13016;52.162;21.034;2022-12-20T02:46:19;101036.58;;;5.35;65.98
24996;BME280;13016;52.162;21.034;2022-12-20T02:48:46;101036.55;;;5.24;66.41
24996;BME280;13016;52.162;21.034;2022-12-20T02:51:13;101037.94;;;5.31;66.31
24996;BME280;13016;52.162;21.034;2022-12-20T02:53:41;101034.00;;;5.15;66.67
24996;BME280;13016;52.162;21.034;2022-12-20T02:56:21;101039.11;;;5.26;66.85
24996;BME280;13016;52.162;21.034;2022-12-20T02:59:02;101040.58;;;5.48;66.28
24996;BME280;13016;52.162;21.034;2022-12-20T03:01:32;101034.75;;;5.55;66.16
24996;BME280;13016;52.162;21.034;2022-12-20T03:03:59;101031.65;;;5.48;66.14
24996;BME280;13016;52.162;21.034;2022-12-20T03:06:25;101026.60;;;5.24;66.87
24996;BME280;13016;52.162;21.034;2022-12-20T03:08:51;101020.28;;;5.18;67.37
24996;BME280;13016;52.162;21.034;2022-12-20T03:11:16;101012.45;;;5.46;66.86
24996;BME280;13016;52.162;21.034;2022-12-20T03:13:41;101006.40;;;5.50;66.58
24996;BME280;13016;52.162;21.034;2022-12-20T03:16:07;101006.48;;;5.58;66.37
24996;BME280;13016;52.162;21.034;2022-12-20T03:18:32;100999.16;;;5.57;66.28
24996;BME280;13016;52.162;21.034;2022-12-20T03:20:57;101000.98;;;5.20;66.99
24996;BME280;13016;52.162;21.034;2022-12-20T03:23:23;100993.37;;;5.41;67.31
24996;BME280;13016;52.162;21.034;2022-12-20T03:25:48;100996.41;;;5.44;67.00
24996;BME280;13016;52.162;21.034;2022-12-20T03:28:14;101002.89;;;5.56;66.85
24996;BME280;13016;52.162;21.034;2022-12-20T03:30:39;101005.85;;;5.73;66.55
24996;BME280;13016;52.162;21.034;2022-12-20T03:33:04;101011.70;;;5.76;66.05
24996;BME280;13016;52.162;21.034;2022-12-20T03:35:29;101030.34;;;5.68;66.19
24996;BME280;13016;52.162;21.034;2022-12-20T03:37:55;101016.33;;;5.57;66.40
24996;BME280;13016;52.162;21.034;2022-12-20T03:40:20;101005.91;;;5.71;66.31
24996;BME280;13016;52.162;21.034;2022-12-20T03:42:45;100993.48;;;5.77;66.08
24996;BME280;13016;52.162;21.034;2022-12-20T03:45:11;100989.53;;;5.52;66.48
24996;BME280;13016;52.162;21.034;2022-12-20T03:47:36;100991.81;;;5.63;66.59
24996;BME280;13016;52.162;21.034;2022-12-20T03:50:02;101000.20;;;5.80;66.42
24996;BME280;13016;52.162;21.034;2022-12-20T03:52:27;101003.52;;;5.81;66.05
24996;BME280;13016;52.162;21.034;2022-12-20T03:54:52;101002.20;;;5.61;66.54
24996;BME280;13016;52.162;21.034;2022-12-20T03:57:17;100993.71;;;5.82;66.60
24996;BME280;13016;52.162;21.034;2022-12-20T03:59:43;100988.39;;;5.60;66.62
24996;BME280;13016;52.162;21.034;2022-12-20T04:02:08;100996.06;;;5.67;66.69
24996;BME280;13016;52.162;21.034;2022-12-20T04:04:34;101005.90;;;5.72;66.53
24996;BME280;13016;52.162;21.034;2022-12-20T04:06:59;101017.30;;;5.65;66.79
24996;BME280;13016;52.162;21.034;2022-12-20T04:09:25;101023.91;;;5.55;67.01
24996;BME280;13016;52.162;21.034;2022-12-20T04:11:51;101021.05;;;5.74;67.03
24996;BME280;13016;52.162;21.034;2022-12-20T04:14:17;101014.58;;;5.86;66.56
24996;BME280;13016;52.162;21.034;2022-12-20T04:16:43;101006.70;;;5.86;66.38
24996;BME280;13016;52.162;21.034;2022-12-20T04:19:08;101013.00;;;6.03;66.05
24996;BME280;13016;52.162;21.034;2022-12-20T04:21:34;101006.35;;;5.74;65.97
24996;BME280;13016;52.162;21.034;2022-12-20T04:24:01;100997.23;;;5.97;66.10
24996;BME280;13016;52.162;21.034;2022-12-20T04:26:27;100994.17;;;6.05;65.55
24996;BME280;13016;52.162;21.034;2022-12-20T04:28:53;100988.33;;;5.97;65.62
24996;BME280;13016;52.162;21.034;2022-12-20T04:31:18;100981.85;;;6.02;65.36
24996;BME280;13016;52.162;21.034;2022-12-20T04:33:44;100975.55;;;5.97;65.58
24996;BME280;13016;52.162;21.034;2022-12-20T04:36:10;100971.52;;;5.91;65.36
24996;BME280;13016;52.162;21.034;2022-12-20T04:38:35;100975.55;;;5.92;65.78
24996;BME280;13016;52.162;21.034;2022-12-20T04:41:00;100981.02;;;6.01;65.44
24996;BME280;13016;52.162;21.034;2022-12-20T04:43:26;100973.48;;;5.84;65.85
24996;BME280;13016;52.162;21.034;2022-12-20T04:45:53;100980.23;;;5.86;65.91
24996;BME280;13016;52.162;21.034;2022-12-20T04:48:19;100989.55;;;6.08;65.49
24996;BME280;13016;52.162;21.034;2022-12-20T04:50:48;100991.48;;;6.02;65.24
24996;BME280;13016;52.162;21.034;2022-12-20T04:53:14;100986.22;;;5.97;65.31
24996;BME280;13016;52.162;21.034;2022-12-20T04:55:40;100984.44;;;5.92;65.47
24996;BME280;13016;52.162;21.034;2022-12-20T04:58:06;100983.67;;;5.94;65.58
24996;BME280;13016;52.162;21.034;2022-12-20T05:00:31;100979.14;;;5.94;65.54
24996;BME280;13016;52.162;21.034;2022-12-20T05:02:57;100973.77;;;5.87;65.65
24996;BME280;13016;52.162;21.034;2022-12-20T05:05:23;100980.35;;;6.05;65.45
24996;BME280;13016;52.162;21.034;2022-12-20T05:07:52;100977.13;;;5.85;66.00
24996;BME280;13016;52.162;21.034;2022-12-20T05:10:21;100978.41;;;6.00;65.62
24996;BME280;13016;52.162;21.034;2022-12-20T05:12:49;100979.17;;;5.93;65.58
24996;BME280;13016;52.162;21.034;2022-12-20T05:15:20;100979.19;;;5.98;65.68
24996;BME280;13016;52.162;21.034;2022-12-20T05:17:49;100970.23;;;6.05;65.60
24996;BME280;13016;52.162;21.034;2022-12-20T05:20:17;100961.81;;;6.09;65.33
24996;BME280;13016;52.162;21.034;2022-12-20T05:22:46;100950.42;;;5.82;66.13
24996;BME280;13016;52.162;21.034;2022-12-20T05:25:31;100947.39;;;5.62;66.54
24996;BME280;13016;52.162;21.034;2022-12-20T05:28:02;100950.05;;;5.72;67.08
24996;BME280;13016;52.162;21.034;2022-12-20T05:36:07;100956.02;;;6.05;66.12
24996;BME280;13016;52.162;21.034;2022-12-20T05:38:34;100954.61;;;6.10;65.91
24996;BME280;13016;52.162;21.034;2022-12-20T05:41:19;100950.11;;;6.03;65.73
24996;BME280;13016;52.162;21.034;2022-12-20T05:43:51;100949.02;;;6.04;65.74
24996;BME280;13016;52.162;21.034;2022-12-20T05:52:15;100961.20;;;6.07;65.80
24996;BME280;13016;52.162;21.034;2022-12-20T05:54:41;100959.62;;;6.12;65.74
24996;BME280;13016;52.162;21.034;2022-12-20T05:57:06;100956.48;;;6.32;65.46
24996;BME280;13016;52.162;21.034;2022-12-20T05:59:31;100956.09;;;6.44;64.99
24996;BME280;13016;52.162;21.034;2022-12-20T06:02:04;100947.86;;;6.12;65.11
24996;BME280;13016;52.162;21.034;2022-12-20T06:04:32;100950.80;;;6.09;65.56
24996;BME280;13016;52.162;21.034;2022-12-20T06:06:58;100952.84;;;6.21;65.24
24996;BME280;13016;52.162;21.034;2022-12-20T06:09:24;100946.31;;;6.27;64.85
24996;BME280;13016;52.162;21.034;2022-12-20T06:11:50;100949.17;;;6.25;65.02
24996;BME280;13016;52.162;21.034;2022-12-20T06:14:15;100949.13;;;6.27;64.73
24996;BME280;13016;52.162;21.034;2022-12-20T06:16:40;100949.86;;;6.16;64.62
24996;BME280;13016;52.162;21.034;2022-12-20T06:19:05;100945.27;;;5.96;65.05
24996;BME280;13016;52.162;21.034;2022-12-20T06:21:37;100946.90;;;5.89;65.69
24996;BME280;13016;52.162;21.034;2022-12-20T06:24:02;100951.68;;;6.09;65.50
24996;BME280;13016;52.162;21.034;2022-12-20T06:26:27;100949.56;;;6.25;64.94
24996;BME280;13016;52.162;21.034;2022-12-20T06:28:53;100957.25;;;6.30;64.59
24996;BME280;13016;52.162;21.034;2022-12-20T06:31:18;100957.55;;;6.42;64.30
24996;BME280;13016;52.162;21.034;2022-12-20T06:33:43;100957.95;;;6.20;64.24
24996;BME280;13016;52.162;21.034;2022-12-20T06:36:09;100958.45;;;6.15;64.48
24996;BME280;13016;52.162;21.034;2022-12-20T06:38:34;100959.97;;;6.38;64.46
24996;BME280;13016;52.162;21.034;2022-12-20T06:41:06;100953.64;;;6.48;63.91
24996;BME280;13016;52.162;21.034;2022-12-20T06:43:31;100952.58;;;6.38;63.66
24996;BME280;13016;52.162;21.034;2022-12-20T06:45:56;100951.80;;;6.41;63.76
24996;BME280;13016;52.162;21.034;2022-12-20T06:48:21;100954.50;;;6.59;63.60
24996;BME280;13016;52.162;21.034;2022-12-20T06:50:48;100944.81;;;6.45;63.22
24996;BME280;13016;52.162;21.034;2022-12-20T06:53:13;100952.89;;;6.29;63.44
24996;BME280;13016;52.162;21.034;2022-12-20T06:55:39;100954.91;;;6.27;63.63
24996;BME280;13016;52.162;21.034;2022-12-20T06:58:04;100965.13;;;6.41;63.65
24996;BME280;13016;52.162;21.034;2022-12-20T07:00:30;100966.06;;;6.44;63.01
24996;BME280;13016;52.162;21.034;2022-12-20T07:02:55;100962.73;;;6.39;63.27
24996;BME280;13016;52.162;21.034;2022-12-20T07:05:20;100968.19;;;6.63;62.95
24996;BME280;13016;52.162;21.034;2022-12-20T07:07:46;100968.80;;;6.51;62.69
24996;BME280;13016;52.162;21.034;2022-12-20T07:10:11;100971.90;;;6.47;62.72
24996;BME280;13016;52.162;21.034;2022-12-20T07:12:36;100970.80;;;6.43;62.74
24996;BME280;13016;52.162;21.034;2022-12-20T07:15:02;100974.67;;;6.68;62.74
24996;BME280;13016;52.162;21.034;2022-12-20T07:17:27;100970.67;;;6.82;62.33
24996;BME280;13016;52.162;21.034;2022-12-20T07:19:52;100973.80;;;6.73;61.97
24996;BME280;13016;52.162;21.034;2022-12-20T07:22:17;100964.80;;;6.70;62.16
24996;BME280;13016;52.162;21.034;2022-12-20T07:24:43;100966.06;;;6.78;62.18
24996;BME280;13016;52.162;21.034;2022-12-20T07:27:09;100963.91;;;6.84;62.11
24996;BME280;13016;52.162;21.034;2022-12-20T07:29:35;100966.52;;;6.99;61.81
24996;BME280;13016;52.162;21.034;2022-12-20T07:32:01;100967.71;;;7.00;61.51
24996;BME280;13016;52.162;21.034;2022-12-20T07:34:26;100964.78;;;6.94;61.19
24996;BME280;13016;52.162;21.034;2022-12-20T07:36:51;100970.64;;;7.07;61.15
24996;BME280;13016;52.162;21.034;2022-12-20T07:39:17;100966.38;;;6.98;60.68
24996;BME280;13016;52.162;21.034;2022-12-20T07:41:42;100965.71;;;6.92;61.22
24996;BME280;13016;52.162;21.034;2022-12-20T07:44:07;100967.95;;;6.93;61.10
24996;BME280;13016;52.162;21.034;2022-12-20T07:46:33;100965.83;;;6.94;61.13
24996;BME280;13016;52.162;21.034;2022-12-20T07:48:58;100962.41;;;6.97;61.24
24996;BME280;13016;52.162;21.034;2022-12-20T07:51:29;100962.52;;;6.99;61.33
24996;BME280;13016;52.162;21.034;2022-12-20T07:54:02;100961.87;;;7.07;61.19
24996;BME280;13016;52.162;21.034;2022-12-20T07:56:30;100965.46;;;6.99;60.98
24996;BME280;13016;52.162;21.034;2022-12-20T07:58:57;100960.50;;;6.91;61.15
24996;BME280;13016;52.162;21.034;2022-12-20T08:01:26;100965.88;;;6.98;61.10
24996;BME280;13016;52.162;21.034;2022-12-20T08:03:57;100963.67;;;7.10;60.87
24996;BME280;13016;52.162;21.034;2022-12-20T08:06:23;100962.32;;;7.09;60.72
24996;BME280;13016;52.162;21.034;2022-12-20T08:08:53;100959.66;;;6.95;60.54
24996;BME280;13016;52.162;21.034;2022-12-20T08:11:21;100962.45;;;6.86;60.70
24996;BME280;13016;52.162;21.034;2022-12-20T08:13:49;100963.30;;;6.82;61.12
24996;BME280;13016;52.162;21.034;2022-12-20T08:16:14;100965.39;;;6.82;60.92
24996;BME280;13016;52.162;21.034;2022-12-20T08:18:39;100969.70;;;7.03;60.97
24996;BME280;13016;52.162;21.034;2022-12-20T08:21:05;100966.30;;;7.14;60.45
24996;BME280;13016;52.162;21.034;2022-12-20T08:23:31;100965.08;;;7.24;60.29
24996;BME280;13016;52.162;21.034;2022-12-20T08:26:01;100964.42;;;7.18;59.77
24996;BME280;13016;52.162;21.034;2022-12-20T08:28:27;100967.52;;;7.24;59.80
24996;BME280;13016;52.162;21.034;2022-12-20T08:30:52;100965.07;;;7.28;59.54
24996;BME280;13016;52.162;21.034;2022-12-20T08:33:17;100962.84;;;7.22;59.46
24996;BME280;13016;52.162;21.034;2022-12-20T08:35:42;100959.69;;;7.31;59.32
24996;BME280;13016;52.162;21.034;2022-12-20T08:38:08;100952.69;;;7.31;59.30
24996;BME280;13016;52.162;21.034;2022-12-20T08:40:34;100946.63;;;7.24;58.94
24996;BME280;13016;52.162;21.034;2022-12-20T08:42:59;100945.05;;;7.24;59.10
24996;BME280;13016;52.162;21.034;2022-12-20T08:45:24;100947.57;;;7.37;59.05
24996;BME280;13016;52.162;21.034;2022-12-20T08:47:50;100946.91;;;7.39;58.65
24996;BME280;13016;52.162;21.034;2022-12-20T08:50:15;100938.88;;;7.34;58.56
24996;BME280;13016;52.162;21.034;2022-12-20T08:52:40;100943.02;;;7.40;58.50
24996;BME280;13016;52.162;21.034;2022-12-20T08:55:06;100938.94;;;7.46;58.39
24996;BME280;13016;52.162;21.034;2022-12-20T08:57:31;100937.72;;;7.54;58.24
24996;BME280;13016;52.162;21.034;2022-12-20T08:59:56;100942.23;;;7.47;58.11
24996;BME280;13016;52.162;21.034;2022-12-20T09:02:22;100946.85;;;7.32;58.37
24996;BME280;13016;52.162;21.034;2022-12-20T09:04:47;100943.16;;;7.50;58.39
24996;BME280;13016;52.162;21.034;2022-12-20T09:07:12;100946.08;;;7.69;58.40
24996;BME280;13016;52.162;21.034;2022-12-20T09:09:37;100951.08;;;7.80;58.12
24996;BME280;13016;52.162;21.034;2022-12-20T09:12:03;100953.23;;;7.53;57.57
24996;BME280;13016;52.162;21.034;2022-12-20T09:14:28;100944.84;;;7.56;58.08
24996;BME280;13016;52.162;21.034;2022-12-20T09:16:53;100944.79;;;7.58;57.83
24996;BME280;13016;52.162;21.034;2022-12-20T09:19:19;100943.47;;;7.51;58.04
24996;BME280;13016;52.162;21.034;2022-12-20T09:21:44;100946.33;;;7.72;58.15
24996;BME280;13016;52.162;21.034;2022-12-20T09:24:09;100948.10;;;7.88;57.81
24996;BME280;13016;52.162;21.034;2022-12-20T09:26:34;100950.91;;;7.97;57.52
24996;BME280;13016;52.162;21.034;2022-12-20T09:29:00;100946.44;;;7.99;57.16
24996;BME280;13016;52.162;21.034;2022-12-20T09:31:25;100938.04;;;7.73;56.83
24996;BME280;13016;52.162;21.034;2022-12-20T09:33:58;100938.07;;;7.72;57.19
24996;BME280;13016;52.162;21.034;2022-12-20T09:36:25;100939.16;;;7.92;57.43
24996;BME280;13016;52.162;21.034;2022-12-20T09:38:51;100941.27;;;8.13;57.36
24996;BME280;13016;52.162;21.034;2022-12-20T09:41:45;100949.88;;;8.27;57.01
24996;BME280;13016;52.162;21.034;2022-12-20T09:44:28;100944.05;;;8.10;56.06
24996;BME280;13016;52.162;21.034;2022-12-20T09:46:59;100937.85;;;8.06;56.07
24996;BME280;13016;52.162;21.034;2022-12-20T09:49:30;100939.31;;;8.23;55.94
24996;BME280;13016;52.162;21.034;2022-12-20T10:00:16;100941.85;;;8.25;55.16
24996;BME280;13016;52.162;21.034;2022-12-20T10:02:42;100947.50;;;8.29;55.76
24996;BME280;13016;52.162;21.034;2022-12-20T10:05:24;100947.16;;;8.49;55.91
24996;BME280;13016;52.162;21.034;2022-12-20T10:10:40;100945.59;;;8.41;55.24
24996;BME280;13016;52.162;21.034;2022-12-20T10:13:43;100936.98;;;8.41;55.46
24996;BME280;13016;52.162;21.034;2022-12-20T10:16:29;100931.29;;;8.42;55.24
24996;BME280;13016;52.162;21.034;2022-12-20T10:19:16;100936.27;;;8.44;55.03
24996;BME280;13016;52.162;21.034;2022-12-20T10:24:31;100941.21;;;8.44;54.66
24996;BME280;13016;52.162;21.034;2022-12-20T10:27:06;100938.86;;;8.30;54.90
24996;BME280;13016;52.162;21.034;2022-12-20T10:29:35;100937.98;;;8.50;55.31
24996;BME280;13016;52.162;21.034;2022-12-20T10:32:01;100934.83;;;8.53;55.00
24996;BME280;13016;52.162;21.034;2022-12-20T10:34:26;100931.10;;;8.50;54.82
24996;BME280;13016;52.162;21.034;2022-12-20T10:37:12;100932.54;;;8.38;54.97
24996;BME280;13016;52.162;21.034;2022-12-20T10:39:42;100933.52;;;8.52;54.81
24996;BME280;13016;52.162;21.034;2022-12-20T10:42:40;100929.02;;;8.46;54.75
24996;BME280;13016;52.162;21.034;2022-12-20T10:45:34;100922.21;;;8.32;54.70
24996;BME280;13016;52.162;21.034;2022-12-20T10:48:05;100920.14;;;8.32;54.92
24996;BME280;13016;52.162;21.034;2022-12-20T10:50:40;100914.86;;;8.48;55.00
24996;BME280;13016;52.162;21.034;2022-12-20T10:53:31;100909.58;;;8.36;54.97
24996;BME280;13016;52.162;21.034;2022-12-20T10:58:51;100905.09;;;8.77;55.00
24996;BME280;13016;52.162;21.034;2022-12-20T11:01:19;100905.59;;;8.74;54.61
24996;BME280;13016;52.162;21.034;2022-12-20T11:04:00;100898.28;;;8.84;54.35
24996;BME280;13016;52.162;21.034;2022-12-20T11:06:50;100889.81;;;8.81;54.60
24996;BME280;13016;52.162;21.034;2022-12-20T11:12:11;100881.10;;;9.02;54.07
24996;BME280;13016;52.162;21.034;2022-12-20T11:14:37;100876.00;;;8.97;54.01
24996;BME280;13016;52.162;21.034;2022-12-20T11:17:50;100866.06;;;8.95;53.70
24996;BME280;13016;52.162;21.034;2022-12-20T11:39:22;100844.73;;;8.85;52.98
24996;BME280;13016;52.162;21.034;2022-12-20T11:41:59;100843.38;;;8.88;53.28
24996;BME280;13016;52.162;21.034;2022-12-20T11:44:44;100851.17;;;8.72;53.44
24996;BME280;13016;52.162;21.034;2022-12-20T11:47:48;100850.50;;;8.86;53.53
24996;BME280;13016;52.162;21.034;2022-12-20T11:50:45;100845.42;;;8.59;53.12
24996;BME280;13016;52.162;21.034;2022-12-20T11:53:36;100836.15;;;8.73;53.66
24996;BME280;13016;52.162;21.034;2022-12-20T11:56:29;100833.73;;;8.84;53.68
24996;BME280;13016;52.162;21.034;2022-12-20T12:01:46;100823.52;;;8.61;53.71
24996;BME280;13016;52.162;21.034;2022-12-20T12:04:34;100825.90;;;8.75;53.84
24996;BME280;13016;52.162;21.034;2022-12-20T12:07:11;100830.95;;;8.75;53.28
24996;BME280;13016;52.162;21.034;2022-12-20T12:09:41;100829.80;;;8.81;53.72
24996;BME280;13016;52.162;21.034;2022-12-20T12:12:24;100829.41;;;8.93;53.84
24996;BME280;13016;52.162;21.034;2022-12-20T12:18:18;100821.31;;;9.01;53.51
24996;BME280;13016;52.162;21.034;2022-12-20T12:26:32;100822.55;;;9.51;53.20
24996;BME280;13016;52.162;21.034;2022-12-20T12:29:18;100823.91;;;9.52;52.32
24996;BME280;13016;52.162;21.034;2022-12-20T12:32:09;100821.77;;;9.20;51.68
24996;BME280;13016;52.162;21.034;2022-12-20T12:38:28;100821.57;;;9.28;51.83
24996;BME280;13016;52.162;21.034;2022-12-20T12:46:26;100824.87;;;9.29;51.89
24996;BME280;13016;52.162;21.034;2022-12-20T12:49:07;100824.34;;;9.22;52.03
24996;BME280;13016;52.162;21.034;2022-12-20T12:51:37;100830.23;;;9.35;52.33
24996;BME280;13016;52.162;21.034;2022-12-20T12:56:41;100826.48;;;9.50;52.22
24996;BME280;13016;52.162;21.034;2022-12-20T13:06:57;100823.29;;;9.25;52.64
24996;BME280;13016;52.162;21.034;2022-12-20T13:11:52;100823.98;;;9.14;52.36
24996;BME280;13016;52.162;21.034;2022-12-20T13:19:54;100832.54;;;8.98;53.38
24996;BME280;13016;52.162;21.034;2022-12-20T13:22:24;100836.91;;;8.76;53.02
24996;BME280;13016;52.162;21.034;2022-12-20T13:25:00;100833.38;;;8.76;53.26
24996;BME280;13016;52.162;21.034;2022-12-20T13:27:52;100831.88;;;8.74;53.66
24996;BME280;13016;52.162;21.034;2022-12-20T13:30:41;100843.91;;;8.77;53.79
24996;BME280;13016;52.162;21.034;2022-12-20T13:33:40;100848.34;;;8.91;54.22
24996;BME280;13016;52.162;21.034;2022-12-20T13:43:51;100848.03;;;8.75;53.54
24996;BME280;13016;52.162;21.034;2022-12-20T13:46:23;100848.52;;;8.72;53.96
24996;BME280;13016;52.162;21.034;2022-12-20T13:49:01;100849.25;;;8.75;53.97
24996;BME280;13016;52.162;21.034;2022-12-20T13:51:30;100846.55;;;8.88;54.33
24996;BME280;13016;52.162;21.034;2022-12-20T13:54:03;100845.98;;;8.92;54.41
24996;BME280;13016;52.162;21.034;2022-12-20T13:56:48;100855.48;;;8.89;53.91
24996;BME280;13016;52.162;21.034;2022-12-20T14:01:48;100852.38;;;8.53;53.94
24996;BME280;13016;52.162;21.034;2022-12-20T14:04:14;100855.59;;;8.56;54.35
24996;BME280;13016;52.162;21.034;2022-12-20T14:06:40;100849.90;;;8.65;54.28
24996;BME280;13016;52.162;21.034;2022-12-20T14:09:38;100842.45;;;8.74;54.40
24996;BME280;13016;52.162;21.034;2022-12-20T14:12:21;100828.71;;;8.78;54.33
24996;BME280;13016;52.162;21.034;2022-12-20T14:14:49;100824.23;;;8.57;54.13
24996;BME280;13016;52.162;21.034;2022-12-20T14:19:43;100811.91;;;8.62;54.50
24996;BME280;13016;52.162;21.034;2022-12-20T14:22:12;100809.73;;;8.74;54.85
24996;BME280;13016;52.162;21.034;2022-12-20T14:24:39;100812.08;;;8.69;54.29
24996;BME280;13016;52.162;21.034;2022-12-20T14:27:11;100811.98;;;8.68;54.65
24996;BME280;13016;52.162;21.034;2022-12-20T14:29:38;100812.30;;;8.68;54.20
24996;BME280;13016;52.162;21.034;2022-12-20T14:32:04;100820.53;;;8.39;54.29
24996;BME280;13016;52.162;21.034;2022-12-20T14:34:31;100824.36;;;8.31;54.44
24996;BME280;13016;52.162;21.034;2022-12-20T14:37:32;100823.92;;;8.45;54.93
24996;BME280;13016;52.162;21.034;2022-12-20T14:42:33;100817.34;;;8.50;54.57
24996;BME280;13016;52.162;21.034;2022-12-20T14:45:19;100817.42;;;8.52;54.72
24996;BME280;13016;52.162;21.034;2022-12-20T14:48:01;100818.39;;;8.43;54.32
24996;BME280;13016;52.162;21.034;2022-12-20T14:50:35;100825.73;;;8.48;55.22
24996;BME280;13016;52.162;21.034;2022-12-20T14:53:02;100826.58;;;8.56;54.90
24996;BME280;13016;52.162;21.034;2022-12-20T14:55:34;100822.85;;;8.57;54.89
24996;BME280;13016;52.162;21.034;2022-12-20T14:58:01;100827.00;;;8.62;54.88
24996;BME280;13016;52.162;21.034;2022-12-20T15:00:31;100818.11;;;8.56;54.52
24996;BME280;13016;52.162;21.034;2022-12-20T15:03:01;100819.41;;;8.44;54.41
24996;BME280;13016;52.162;21.034;2022-12-20T15:10:40;100806.57;;;8.20;54.90
24996;BME280;13016;52.162;21.034;2022-12-20T15:13:20;100806.70;;;8.21;54.80
24996;BME280;13016;52.162;21.034;2022-12-20T15:15:49;100800.65;;;8.27;54.91
24996;BME280;13016;52.162;21.034;2022-12-20T15:18:16;100788.50;;;8.03;55.00
24996;BME280;13016;52.162;21.034;2022-12-20T15:20:57;100789.20;;;8.15;55.44